createdAt,value
2023-06-08T00:00:31.479Z,14.82
2023-06-08T00:02:59.008Z,14.81
2023-06-08T00:05:27.104Z,14.79
2023-06-08T00:07:57.854Z,14.79
2023-06-08T00:10:24.763Z,14.79
2023-06-08T00:12:53.252Z,14.75
2023-06-08T00:15:20.778Z,14.70
2023-06-08T00:17:48.377Z,14.71
2023-06-08T00:20:15.197Z,14.65
2023-06-08T00:22:44.474Z,14.63
2023-06-08T00:25:11.653Z,14.60
2023-06-08T00:27:38.421Z,14.62
2023-06-08T00:30:06.147Z,14.61
2023-06-08T00:32:33.047Z,14.59
2023-06-08T00:34:59.826Z,14.56
2023-06-08T00:37:26.625Z,14.54
2023-06-08T00:39:53.379Z,14.51
2023-06-08T00:42:20.121Z,14.49
2023-06-08T00:44:46.867Z,14.47
2023-06-08T00:47:15.883Z,14.44
2023-06-08T00:49:46.355Z,14.45
2023-06-08T00:52:13.880Z,14.39
2023-06-08T00:54:40.793Z,14.36
2023-06-08T00:57:07.728Z,14.34
2023-06-08T00:59:35.279Z,14.33
2023-06-08T01:02:05.558Z,14.37
2023-06-08T01:04:32.994Z,14.34
2023-06-08T01:07:16.026Z,14.30
2023-06-08T01:10:02.405Z,14.31
2023-06-08T01:12:57.160Z,14.36
2023-06-08T01:15:32.118Z,14.29
2023-06-08T01:18:06.074Z,14.21
2023-06-08T01:20:43.150Z,14.18
2023-06-08T01:23:27.450Z,14.19
2023-06-08T01:25:57.463Z,14.18
2023-06-08T01:28:26.246Z,14.18
2023-06-08T01:30:53.637Z,14.17
2023-06-08T01:33:23.256Z,14.20
2023-06-08T01:36:14.469Z,14.23
2023-06-08T01:39:00.365Z,14.16
2023-06-08T01:41:33.589Z,14.07
2023-06-08T01:44:01.717Z,14.02
2023-06-08T01:46:30.458Z,14.00
2023-06-08T01:48:59.746Z,13.96
2023-06-08T01:51:28.388Z,14.03
2023-06-08T01:54:05.986Z,13.96
2023-06-08T01:56:34.184Z,13.96
2023-06-08T01:59:01.359Z,13.97
2023-06-08T02:01:28.228Z,13.90
2023-06-08T02:03:55.165Z,13.88
2023-06-08T02:06:21.892Z,13.87
2023-06-08T02:08:48.887Z,13.86
2023-06-08T02:11:15.754Z,13.80
2023-06-08T02:13:44.211Z,13.72
2023-06-08T02:16:12.804Z,13.69
2023-06-08T02:18:43.078Z,13.71
2023-06-08T02:21:11.369Z,13.75
2023-06-08T02:23:38.781Z,13.70
2023-06-08T02:26:07.451Z,13.67
2023-06-08T02:28:35.633Z,13.67
2023-06-08T02:31:07.097Z,13.62
2023-06-08T02:33:35.136Z,13.59
2023-06-08T02:36:02.076Z,13.57
2023-06-08T02:38:31.566Z,13.59
2023-06-08T02:40:58.446Z,13.60
2023-06-08T02:43:25.562Z,13.64
2023-06-08T02:45:52.327Z,13.61
2023-06-08T02:48:20.766Z,13.65
2023-06-08T02:50:47.667Z,13.66
2023-06-08T02:53:14.592Z,13.59
2023-06-08T02:55:41.381Z,13.54
2023-06-08T02:58:15.616Z,13.51
2023-06-08T03:00:42.391Z,13.49
2023-06-08T03:03:22.772Z,13.45
2023-06-08T03:05:51.913Z,13.43
2023-06-08T03:08:18.872Z,13.40
2023-06-08T03:10:46.070Z,13.39
2023-06-08T03:13:14.556Z,13.40
2023-06-08T03:15:42.519Z,13.40
2023-06-08T03:18:10.732Z,13.40
2023-06-08T03:20:38.843Z,13.42
2023-06-08T03:23:11.600Z,13.42
2023-06-08T03:25:40.755Z,13.44
2023-06-08T03:28:07.562Z,13.47
2023-06-08T03:30:34.270Z,13.47
2023-06-08T03:33:07.134Z,13.49
2023-06-08T03:35:50.149Z,13.58
2023-06-08T03:38:22.331Z,13.57
2023-06-08T03:40:50.906Z,13.57
2023-06-08T03:43:19.942Z,13.61
2023-06-08T03:45:47.926Z,13.65
2023-06-08T03:48:14.721Z,13.70
2023-06-08T03:50:45.230Z,13.79
2023-06-08T03:53:13.381Z,13.87
2023-06-08T03:55:40.221Z,13.97
2023-06-08T03:58:07.613Z,13.99
2023-06-08T04:00:34.549Z,14.01
2023-06-08T04:03:02.135Z,14.04
2023-06-08T04:05:29.220Z,14.10
2023-06-08T04:07:56.679Z,14.14
2023-06-08T04:10:24.551Z,14.17
2023-06-08T04:12:52.451Z,14.20
2023-06-08T04:15:19.327Z,14.23
2023-06-08T04:17:48.269Z,14.25
2023-06-08T04:20:19.129Z,14.28
2023-06-08T04:22:46.932Z,14.35
2023-06-08T04:25:15.143Z,14.40
2023-06-08T04:27:43.521Z,14.44
2023-06-08T04:30:11.781Z,14.47
2023-06-08T04:32:39.092Z,14.50
2023-06-08T04:35:06.801Z,14.54
2023-06-08T04:37:36.348Z,14.56
2023-06-08T04:40:05.455Z,14.60
2023-06-08T04:42:38.424Z,14.63
2023-06-08T04:45:09.216Z,14.65
2023-06-08T04:47:37.323Z,14.69
2023-06-08T04:50:04.791Z,14.73
2023-06-08T04:52:38.596Z,14.79
2023-06-08T04:55:06.166Z,14.85
2023-06-08T04:57:33.539Z,14.91
2023-06-08T05:00:00.536Z,14.94
2023-06-08T05:02:27.405Z,14.98
2023-06-08T05:04:54.679Z,15.07
2023-06-08T05:07:21.466Z,15.11
2023-06-08T05:09:48.250Z,15.15
2023-06-08T05:12:15.075Z,15.20
2023-06-08T05:14:42.640Z,15.26
2023-06-08T05:17:10.071Z,15.33
2023-06-08T05:19:37.001Z,15.37
2023-06-08T05:22:03.894Z,15.44
2023-06-08T05:24:30.861Z,15.49
2023-06-08T05:26:57.642Z,15.54
2023-06-08T05:29:24.504Z,15.59
2023-06-08T05:31:51.394Z,15.67
2023-06-08T05:34:19.212Z,15.74
2023-06-08T05:36:45.974Z,15.77
2023-06-08T05:39:12.611Z,15.83
2023-06-08T05:41:40.274Z,15.95
2023-06-08T05:44:07.045Z,16.23
2023-06-08T05:46:33.810Z,16.33
2023-06-08T05:49:00.771Z,16.32
2023-06-08T05:51:27.508Z,16.30
2023-06-08T05:53:54.195Z,16.34
2023-06-08T05:56:20.961Z,16.41
2023-06-08T05:58:49.804Z,16.49
2023-06-08T06:01:20.438Z,16.60
2023-06-08T06:03:48.427Z,16.73
2023-06-08T06:06:15.303Z,16.85
2023-06-08T06:08:44.502Z,16.96
2023-06-08T06:11:11.691Z,17.10
2023-06-08T06:13:38.375Z,17.21
2023-06-08T06:16:05.270Z,17.39
2023-06-08T06:18:33.511Z,17.53
2023-06-08T06:21:00.244Z,17.67
2023-06-08T06:23:27.130Z,17.83
2023-06-08T06:25:54.145Z,18.00
2023-06-08T06:28:21.102Z,18.08
2023-06-08T06:30:47.900Z,18.00
2023-06-08T06:33:14.658Z,18.12
2023-06-08T06:35:41.510Z,18.27
2023-06-08T06:38:08.237Z,18.40
2023-06-08T06:40:34.901Z,18.47
2023-06-08T06:43:01.672Z,18.60
2023-06-08T06:45:39.317Z,18.83
2023-06-08T06:48:06.317Z,18.96
2023-06-08T06:50:33.295Z,18.95
2023-06-08T06:53:00.146Z,19.01
2023-06-08T06:55:26.922Z,19.14
2023-06-08T06:57:53.781Z,19.27
2023-06-08T07:00:21.022Z,19.27
2023-06-08T07:02:48.659Z,19.18
2023-06-08T07:05:15.572Z,19.06
2023-06-08T07:07:42.277Z,18.93
2023-06-08T07:10:09.547Z,18.80
2023-06-08T07:12:36.577Z,18.75
2023-06-08T07:15:03.541Z,18.70
2023-06-08T07:17:30.528Z,18.82
2023-06-08T07:19:58.955Z,18.83
2023-06-08T07:22:55.266Z,18.87
2023-06-08T07:25:53.546Z,18.91
2023-06-08T07:28:04.110Z,18.88
2023-06-08T07:30:36.228Z,18.90
2023-06-08T07:33:04.575Z,19.04
2023-06-08T07:35:31.816Z,19.00
2023-06-08T07:37:58.793Z,19.02
2023-06-08T07:40:25.688Z,19.03
2023-06-08T07:42:52.759Z,18.90
2023-06-08T07:45:19.459Z,18.87
2023-06-08T07:47:46.671Z,18.92
2023-06-08T07:50:14.022Z,19.04
2023-06-08T07:52:44.916Z,19.05
2023-06-08T07:55:13.445Z,19.07
2023-06-08T07:57:40.397Z,19.12
2023-06-08T08:00:09.165Z,19.17
2023-06-08T08:02:42.957Z,19.21
2023-06-08T08:05:10.255Z,19.11
2023-06-08T08:07:37.659Z,19.15
2023-06-08T08:10:05.230Z,19.09
2023-06-08T08:12:32.247Z,18.91
2023-06-08T08:14:59.999Z,18.83
2023-06-08T08:17:27.770Z,18.82
2023-06-08T08:19:54.664Z,18.83
2023-06-08T08:22:23.374Z,18.86
2023-06-08T08:24:50.183Z,18.83
2023-06-08T08:27:18.692Z,18.84
2023-06-08T08:29:45.777Z,18.90
2023-06-08T08:32:12.631Z,19.00
2023-06-08T08:34:39.386Z,19.12
2023-06-08T08:37:06.453Z,19.22
2023-06-08T08:39:33.903Z,19.25
2023-06-08T08:42:07.349Z,19.25
2023-06-08T08:44:34.666Z,19.33
2023-06-08T08:47:03.805Z,19.29
2023-06-08T08:49:37.550Z,19.39
2023-06-08T08:52:09.734Z,19.39
2023-06-08T08:54:38.824Z,19.42
2023-06-08T08:57:07.806Z,19.42
2023-06-08T08:59:35.839Z,19.42
2023-06-08T09:02:04.480Z,19.55
2023-06-08T09:04:31.363Z,19.65
2023-06-08T09:06:58.244Z,19.74
2023-06-08T09:09:24.998Z,19.93
2023-06-08T09:12:03.272Z,20.07
2023-06-08T09:14:30.650Z,20.14
2023-06-08T09:17:00.309Z,20.26
2023-06-08T09:19:29.168Z,20.35
2023-06-08T09:21:56.404Z,20.43
2023-06-08T09:24:24.212Z,20.64
2023-06-08T09:26:57.463Z,20.75
2023-06-08T09:29:46.846Z,20.91
2023-06-08T09:32:15.333Z,20.97
2023-06-08T09:34:57.142Z,20.92
2023-06-08T09:37:30.258Z,20.96
2023-06-08T09:39:58.077Z,21.04
2023-06-08T09:42:42.444Z,21.04
2023-06-08T09:45:13.797Z,21.08
2023-06-08T09:47:41.474Z,20.99
2023-06-08T09:50:09.982Z,20.94
2023-06-08T09:52:38.424Z,21.08
2023-06-08T09:55:06.893Z,21.29
2023-06-08T09:57:38.241Z,21.34
2023-06-08T10:00:17.215Z,21.31
2023-06-08T10:02:55.970Z,21.37
2023-06-08T10:05:23.871Z,21.34
2023-06-08T10:07:53.880Z,21.43
2023-06-08T10:10:23.755Z,21.48
2023-06-08T10:12:52.025Z,21.62
2023-06-08T10:15:20.470Z,21.63
2023-06-08T10:17:48.667Z,21.57
2023-06-08T10:20:18.438Z,21.43
2023-06-08T10:22:46.863Z,21.36
2023-06-08T10:25:14.905Z,21.48
2023-06-08T10:27:53.241Z,21.56
2023-06-08T10:30:43.380Z,21.58
2023-06-08T10:33:12.193Z,21.55
2023-06-08T10:35:43.721Z,21.59
2023-06-08T10:38:11.555Z,21.65
2023-06-08T10:40:48.233Z,21.58
2023-06-08T10:43:45.562Z,21.61
2023-06-08T10:46:02.179Z,21.66
2023-06-08T10:48:38.159Z,21.74
2023-06-08T10:51:11.647Z,21.87
2023-06-08T10:53:55.666Z,21.86
2023-06-08T10:56:27.099Z,21.92
2023-06-08T10:58:54.832Z,21.96
2023-06-08T11:01:22.833Z,22.05
2023-06-08T11:03:50.273Z,22.15
2023-06-08T11:06:17.434Z,22.13
2023-06-08T11:08:44.369Z,22.16
2023-06-08T11:11:14.405Z,22.13
2023-06-08T11:13:41.177Z,22.14
2023-06-08T11:16:08.061Z,22.07
2023-06-08T11:18:35.636Z,22.00
2023-06-08T11:21:03.426Z,22.05
2023-06-08T11:23:35.364Z,22.05
2023-06-08T11:26:02.680Z,22.06
2023-06-08T11:28:29.532Z,22.09
2023-06-08T11:30:56.413Z,22.13
2023-06-08T11:33:23.190Z,22.16
2023-06-08T11:35:54.388Z,22.28
2023-06-08T11:38:25.122Z,22.35
2023-06-08T11:40:52.453Z,22.41
2023-06-08T11:43:21.795Z,22.49
2023-06-08T11:45:48.620Z,22.61
2023-06-08T11:48:17.582Z,22.68
2023-06-08T11:50:49.473Z,22.76
2023-06-08T11:53:24.080Z,22.77
2023-06-08T11:55:54.086Z,22.78
2023-06-08T11:58:33.058Z,22.68
2023-06-08T12:01:12.275Z,22.54
2023-06-08T12:03:50.565Z,22.45
2023-06-08T12:06:19.538Z,22.42
2023-06-08T12:08:46.783Z,22.47
2023-06-08T12:11:15.336Z,22.66
2023-06-08T12:13:43.689Z,22.72
2023-06-08T12:16:11.675Z,22.82
2023-06-08T12:18:43.642Z,22.79
2023-06-08T12:21:15.807Z,22.84
2023-06-08T12:23:44.362Z,22.94
2023-06-08T12:26:11.383Z,23.06
2023-06-08T12:28:39.546Z,23.23
2023-06-08T12:31:06.673Z,23.24
2023-06-08T12:33:34.521Z,23.31
2023-06-08T12:36:02.144Z,23.47
2023-06-08T12:38:29.310Z,23.58
2023-06-08T12:40:57.804Z,23.66
2023-06-08T12:43:26.420Z,23.64
2023-06-08T12:45:53.602Z,23.50
2023-06-08T12:48:23.891Z,23.47
2023-06-08T12:50:50.746Z,23.37
2023-06-08T12:53:17.455Z,23.52
2023-06-08T12:55:44.410Z,23.46
2023-06-08T12:58:12.133Z,23.37
2023-06-08T13:00:39.437Z,23.51
2023-06-08T13:03:08.816Z,23.54
2023-06-08T13:05:36.462Z,23.60
2023-06-08T13:08:07.878Z,23.74
2023-06-08T13:10:39.390Z,23.90
2023-06-08T13:13:08.301Z,23.98
2023-06-08T13:15:36.466Z,24.04
2023-06-08T13:18:04.719Z,24.05
2023-06-08T13:20:31.731Z,23.97
2023-06-08T13:22:58.820Z,23.78
2023-06-08T13:25:25.915Z,23.49
2023-06-08T13:27:53.172Z,23.42
2023-06-08T13:30:19.918Z,23.30
2023-06-08T13:32:46.900Z,23.23
2023-06-08T13:35:14.257Z,23.32
2023-06-08T13:37:41.992Z,23.43
2023-06-08T13:40:09.823Z,23.41
2023-06-08T13:42:37.103Z,23.29
2023-06-08T13:45:04.095Z,23.32
2023-06-08T13:47:30.841Z,23.37
2023-06-08T13:49:58.434Z,23.19
2023-06-08T13:52:25.282Z,23.05
2023-06-08T13:54:52.030Z,23.04
2023-06-08T13:57:18.849Z,23.10
2023-06-08T13:59:45.725Z,23.10
2023-06-08T14:02:12.605Z,22.99
2023-06-08T14:04:39.387Z,22.88
2023-06-08T14:07:06.626Z,22.85
2023-06-08T14:09:33.503Z,22.68
2023-06-08T14:12:00.188Z,22.69
2023-06-08T14:14:26.885Z,22.77
2023-06-08T14:16:53.973Z,22.94
2023-06-08T14:19:20.645Z,23.05
2023-06-08T14:21:47.381Z,23.13
2023-06-08T14:24:14.319Z,23.12
2023-06-08T14:26:41.444Z,22.94
2023-06-08T14:29:09.965Z,22.78
2023-06-08T14:31:37.014Z,22.87
2023-06-08T14:34:03.802Z,22.96
2023-06-08T14:36:30.633Z,22.97
2023-06-08T14:38:57.589Z,23.04
2023-06-08T14:41:24.458Z,23.11
2023-06-08T14:43:52.640Z,22.98
2023-06-08T14:46:20.328Z,22.84
2023-06-08T14:48:47.294Z,22.80
2023-06-08T14:51:32.417Z,22.88
2023-06-08T14:54:04.013Z,22.94
2023-06-08T14:56:30.830Z,23.13
2023-06-08T14:58:57.675Z,23.18
2023-06-08T15:01:24.522Z,23.22
2023-06-08T15:03:51.446Z,23.28
2023-06-08T15:06:18.185Z,23.40
2023-06-08T15:08:45.237Z,23.43
2023-06-08T15:11:18.472Z,23.43
2023-06-08T15:13:46.496Z,23.47
2023-06-08T15:16:13.247Z,23.58
2023-06-08T15:18:40.151Z,23.58
2023-06-08T15:21:07.087Z,23.59
2023-06-08T15:23:34.042Z,23.52
2023-06-08T15:26:00.819Z,23.32
2023-06-08T15:28:27.912Z,23.24
2023-06-08T15:30:54.927Z,23.06
2023-06-08T15:33:21.634Z,22.78
2023-06-08T15:35:48.820Z,22.83
2023-06-08T15:38:17.513Z,22.79
2023-06-08T15:40:47.441Z,22.84
2023-06-08T15:43:14.262Z,22.88
2023-06-08T15:45:41.485Z,22.83
2023-06-08T15:48:08.306Z,22.66
2023-06-08T15:50:35.239Z,22.61
2023-06-08T15:53:01.903Z,22.44
2023-06-08T15:55:28.831Z,22.35
2023-06-08T15:57:55.681Z,22.33
2023-06-08T16:00:22.643Z,22.33
2023-06-08T16:02:49.902Z,22.26
2023-06-08T16:05:16.806Z,22.24
2023-06-08T16:07:43.594Z,22.16
2023-06-08T16:10:10.878Z,22.11
2023-06-08T16:12:37.802Z,22.09
2023-06-08T16:15:06.259Z,22.14
2023-06-08T16:17:33.192Z,22.12
2023-06-08T16:20:00.261Z,22.13
2023-06-08T16:22:27.066Z,22.05
2023-06-08T16:24:53.834Z,21.97
2023-06-08T16:27:21.199Z,21.93
2023-06-08T16:29:48.502Z,21.92
2023-06-08T16:32:16.071Z,21.98
2023-06-08T16:34:42.959Z,21.94
2023-06-08T16:37:09.745Z,21.73
2023-06-08T16:39:36.563Z,21.73
2023-06-08T16:42:03.698Z,21.74
2023-06-08T16:44:30.408Z,21.78
2023-06-08T16:46:57.432Z,21.66
2023-06-08T16:49:24.183Z,21.69
2023-06-08T16:51:53.112Z,21.68
2023-06-08T16:54:20.150Z,21.59
2023-06-08T16:56:46.945Z,21.56
2023-06-08T16:59:15.339Z,21.57
2023-06-08T17:01:42.680Z,21.54
2023-06-08T17:04:09.842Z,21.46
2023-06-08T17:06:37.266Z,21.44
2023-06-08T17:09:04.254Z,21.44
2023-06-08T17:11:31.587Z,21.37
2023-06-08T17:13:59.815Z,21.30
2023-06-08T17:16:28.094Z,21.33
2023-06-08T17:18:55.362Z,21.36
2023-06-08T17:21:22.289Z,21.33
2023-06-08T17:23:49.956Z,21.22
2023-06-08T17:26:17.993Z,21.17
2023-06-08T17:28:45.008Z,21.15
2023-06-08T17:31:12.373Z,21.12
2023-06-08T17:33:39.178Z,21.08
2023-06-08T17:36:08.555Z,20.96
2023-06-08T17:38:35.411Z,20.83
2023-06-08T17:41:02.170Z,20.78
2023-06-08T17:43:31.010Z,20.75
2023-06-08T17:45:58.594Z,20.68
2023-06-08T17:48:25.461Z,20.58
2023-06-08T17:50:52.249Z,20.39
2023-06-08T17:53:19.044Z,20.25
2023-06-08T17:55:45.830Z,20.11
2023-06-08T17:58:12.612Z,19.95
2023-06-08T18:00:39.380Z,19.90
2023-06-08T18:03:08.069Z,19.76
2023-06-08T18:05:35.593Z,19.79
2023-06-08T18:08:02.370Z,19.64
2023-06-08T18:10:29.341Z,19.51
2023-06-08T18:12:56.176Z,19.45
2023-06-08T18:15:23.420Z,19.34
2023-06-08T18:17:50.475Z,19.27
2023-06-08T18:20:19.362Z,19.21
2023-06-08T18:22:46.345Z,19.13
2023-06-08T18:25:13.571Z,19.05
2023-06-08T18:27:41.866Z,18.96
2023-06-08T18:30:09.696Z,18.86
2023-06-08T18:32:38.581Z,18.79
2023-06-08T18:35:06.228Z,18.74
2023-06-08T18:37:33.557Z,18.71
2023-06-08T18:40:00.422Z,18.70
2023-06-08T18:42:27.221Z,18.68
2023-06-08T18:44:57.370Z,18.55
2023-06-08T18:47:26.357Z,18.48
2023-06-08T18:49:53.419Z,18.34
2023-06-08T18:52:20.154Z,18.34
2023-06-08T18:54:47.115Z,18.31
2023-06-08T18:57:14.448Z,18.26
2023-06-08T18:59:42.898Z,18.13
2023-06-08T19:02:10.310Z,18.12
2023-06-08T19:04:37.264Z,18.08
2023-06-08T19:07:04.521Z,17.97
2023-06-08T19:09:31.290Z,17.88
2023-06-08T19:11:58.170Z,17.83
2023-06-08T19:14:26.648Z,17.72
2023-06-08T19:16:54.050Z,17.61
2023-06-08T19:19:22.398Z,17.54
2023-06-08T19:21:50.346Z,17.46
2023-06-08T19:24:17.176Z,17.40
2023-06-08T19:26:43.969Z,17.36
2023-06-08T19:29:11.019Z,17.34
2023-06-08T19:31:38.042Z,17.26
2023-06-08T19:34:05.084Z,17.15
2023-06-08T19:36:31.874Z,17.09
2023-06-08T19:38:59.192Z,17.05
2023-06-08T19:41:27.459Z,17.01
2023-06-08T19:43:54.630Z,16.98
2023-06-08T19:46:22.714Z,16.86
2023-06-08T19:48:52.619Z,16.81
2023-06-08T19:51:19.849Z,16.83
2023-06-08T19:53:46.923Z,16.79
2023-06-08T19:56:15.556Z,16.74
2023-06-08T19:58:42.248Z,16.72
2023-06-08T20:01:09.171Z,16.71
2023-06-08T20:03:36.286Z,16.58
2023-06-08T20:06:03.228Z,16.52
2023-06-08T20:08:30.391Z,16.43
2023-06-08T20:10:57.511Z,16.43
2023-06-08T20:13:24.338Z,16.47
2023-06-08T20:15:51.385Z,16.44
2023-06-08T20:18:22.982Z,16.42
2023-06-08T20:20:50.693Z,16.42
2023-06-08T20:23:17.768Z,16.48
2023-06-08T20:25:45.810Z,16.46
2023-06-08T20:28:12.732Z,16.49
2023-06-08T20:30:39.584Z,16.49
2023-06-08T20:33:06.782Z,16.49
2023-06-08T20:35:33.774Z,16.45
2023-06-08T20:38:01.532Z,16.40
2023-06-08T20:40:28.387Z,16.36
2023-06-08T20:42:55.315Z,16.32
2023-06-08T20:45:22.599Z,16.28
2023-06-08T20:47:49.735Z,16.28
2023-06-08T20:50:16.582Z,16.21
2023-06-08T20:52:43.741Z,16.17
2023-06-08T20:55:10.732Z,16.13
2023-06-08T20:57:37.722Z,16.02
2023-06-08T21:00:09.598Z,15.97
2023-06-08T21:02:47.395Z,15.92
2023-06-08T21:05:18.778Z,15.89
2023-06-08T21:07:47.342Z,15.87
2023-06-08T21:10:16.315Z,15.89
2023-06-08T21:12:43.279Z,15.90
2023-06-08T21:15:10.204Z,15.80
2023-06-08T21:17:37.988Z,15.75
2023-06-08T21:20:05.768Z,15.69
2023-06-08T21:22:32.946Z,15.74
2023-06-08T21:24:59.738Z,15.70
2023-06-08T21:27:27.103Z,15.62
2023-06-08T21:29:54.472Z,15.56
2023-06-08T21:32:21.532Z,15.51
2023-06-08T21:34:49.445Z,15.46
2023-06-08T21:37:16.510Z,15.40
2023-06-08T21:39:43.607Z,15.44
2023-06-08T21:42:11.422Z,15.34
2023-06-08T21:44:39.048Z,15.32
2023-06-08T21:47:06.390Z,15.27
2023-06-08T21:49:33.046Z,15.23
2023-06-08T21:51:59.767Z,15.18
2023-06-08T21:54:26.526Z,15.13
2023-06-08T21:56:53.304Z,15.08
2023-06-08T21:59:21.305Z,15.04
2023-06-08T22:01:48.731Z,14.99
2023-06-08T22:04:15.653Z,15.00
2023-06-08T22:06:44.103Z,14.93
2023-06-08T22:09:10.977Z,14.88
2023-06-08T22:11:38.986Z,14.84
2023-06-08T22:14:07.100Z,14.84
2023-06-08T22:16:38.665Z,14.79
2023-06-08T22:19:07.661Z,14.75
2023-06-08T22:21:37.938Z,14.66
2023-06-08T22:24:05.187Z,14.61
2023-06-08T22:26:32.041Z,14.56
2023-06-08T22:28:58.818Z,14.49
2023-06-08T22:31:27.690Z,14.47
2023-06-08T22:33:54.794Z,14.50
2023-06-08T22:36:24.654Z,14.51
2023-06-08T22:38:52.052Z,14.40
2023-06-08T22:41:19.051Z,14.30
2023-06-08T22:43:45.889Z,14.23
2023-06-08T22:46:12.668Z,14.21
2023-06-08T22:48:42.059Z,14.19
2023-06-08T22:51:12.852Z,14.20
2023-06-08T22:53:39.770Z,14.14
2023-06-08T22:56:11.062Z,14.12
2023-06-08T22:58:38.220Z,14.08
2023-06-08T23:01:08.843Z,14.06
2023-06-08T23:03:36.457Z,14.04
2023-06-08T23:06:03.209Z,14.01
2023-06-08T23:08:31.393Z,14.01
2023-06-08T23:10:58.238Z,13.97
2023-06-08T23:13:27.408Z,13.91
2023-06-08T23:15:54.657Z,13.88
2023-06-08T23:18:33.813Z,13.86
2023-06-08T23:21:01.833Z,13.80
2023-06-08T23:23:29.432Z,13.75
2023-06-08T23:25:56.431Z,13.73
2023-06-08T23:28:23.211Z,13.71
2023-06-08T23:30:49.955Z,13.68
2023-06-08T23:33:16.808Z,13.70
2023-06-08T23:35:44.572Z,13.69
2023-06-08T23:38:11.694Z,13.82
2023-06-08T23:40:38.520Z,13.72
2023-06-08T23:43:05.407Z,13.68
2023-06-08T23:45:32.461Z,13.64
2023-06-08T23:48:02.835Z,13.59
2023-06-08T23:50:29.821Z,13.51
2023-06-08T23:52:56.823Z,13.47
2023-06-08T23:55:23.951Z,13.43
2023-06-08T23:57:51.346Z,13.42
